Ext Villa del Pilar, Puerto Rico
Current Conditions -  °F | °C
As of 11:58 AM on Thursday 30 Oct 2014 (Local Time) from TJNR Reporting Station
Light Rain Light Rain  
Wind Chill: 83°   Ceiling: 3200
Heat Index: 93°   Visibility: 3mi
Dew Point: 78°   Wind: 3mph
Humidity: 85%   Direction: 10°N
Pressure: 29.86"   Gusts: NA
Location:  18.2667°N, 65.6476°W
Report Text: TJNR 301558Z AUTO 01003KT 3SM -RA FEW021 BKN032 OVC047 28/26 A2986 RMK AO2 P0000 T02830256 $
Loading
Personal Weather Stations






























Interactive Weather Map
Tropical Storm Tracking
New forecast layout! Learn more

10-Day Weather Forecast

Advertisements
Track Severe Weather on mobile